createdAt,value
2019-04-25T00:01:46.335Z,12.55
2019-04-25T00:06:52.315Z,12.50
2019-04-25T00:11:59.694Z,12.48
2019-04-25T00:17:05.683Z,12.43
2019-04-25T00:22:31.648Z,12.38
2019-04-25T00:27:37.199Z,12.32
2019-04-25T00:32:44.086Z,12.28
2019-04-25T00:37:49.865Z,12.22
2019-04-25T00:42:55.422Z,12.20
2019-04-25T00:48:04.335Z,12.16
2019-04-25T00:53:11.292Z,12.12
2019-04-25T00:58:38.801Z,12.07
2019-04-25T01:03:45.303Z,12.01
2019-04-25T01:08:53.241Z,11.98
2019-04-25T01:13:58.120Z,11.95
2019-04-25T01:19:03.596Z,11.92
2019-04-25T01:24:09.161Z,11.88
2019-04-25T01:29:14.992Z,11.84
2019-04-25T01:34:25.855Z,11.80
2019-04-25T01:39:51.045Z,11.76
2019-04-25T01:44:58.004Z,11.73
2019-04-25T01:50:04.054Z,11.72
2019-04-25T01:55:09.786Z,11.74
2019-04-25T02:00:16.972Z,11.77
2019-04-25T02:05:23.788Z,11.78
2019-04-25T02:10:29.347Z,11.79
2019-04-25T02:15:34.922Z,11.79
2019-04-25T02:20:40.333Z,11.78
2019-04-25T02:25:45.769Z,11.77
2019-04-25T02:30:51.262Z,11.75
2019-04-25T02:35:59.364Z,11.73
2019-04-25T02:41:08.283Z,11.71
2019-04-25T02:46:36.847Z,11.70
2019-04-25T02:51:59.557Z,11.69
2019-04-25T02:57:08.180Z,11.70
2019-04-25T03:02:15.395Z,11.70
2019-04-25T03:07:20.933Z,11.69
2019-04-25T03:12:33.032Z,11.69
2019-04-25T03:17:34.236Z,11.66
2019-04-25T03:22:39.823Z,11.64
2019-04-25T03:27:45.233Z,11.66
2019-04-25T03:32:51.610Z,11.68
2019-04-25T03:37:57.211Z,11.70
2019-04-25T03:43:04.723Z,11.73
2019-04-25T03:48:09.813Z,11.73
2019-04-25T03:53:15.392Z,11.73
2019-04-25T03:58:20.939Z,11.73
2019-04-25T04:03:26.343Z,11.75
2019-04-25T04:08:31.732Z,11.78
2019-04-25T04:13:37.165Z,11.81
2019-04-25T04:18:44.412Z,11.86
2019-04-25T04:23:58.546Z,11.89
2019-04-25T04:29:04.702Z,11.92
2019-04-25T04:34:10.625Z,11.94
2019-04-25T04:39:16.801Z,12.02
2019-04-25T04:44:24.129Z,12.11
2019-04-25T04:49:29.817Z,12.22
2019-04-25T04:54:35.471Z,12.36
2019-04-25T04:59:40.905Z,12.50
2019-04-25T05:05:12.031Z,12.62
2019-04-25T05:10:19.777Z,12.68
2019-04-25T05:15:25.508Z,12.75
2019-04-25T05:20:31.038Z,12.91
2019-04-25T05:25:36.605Z,13.18
2019-04-25T05:30:47.355Z,13.43
2019-04-25T05:35:53.911Z,13.64
2019-04-25T05:41:04.041Z,13.85
2019-04-25T05:46:09.543Z,14.17
2019-04-25T05:51:15.862Z,15.13
2019-04-25T05:56:22.444Z,16.72
2019-04-25T06:01:30.093Z,17.22
2019-04-25T06:06:36.808Z,17.69
2019-04-25T06:11:49.932Z,19.04
2019-04-25T06:16:58.230Z,19.24
2019-04-25T06:22:03.712Z,19.20
2019-04-25T06:27:28.482Z,18.97
2019-04-25T06:32:35.370Z,18.41
2019-04-25T06:37:41.089Z,17.85
2019-04-25T06:42:46.828Z,17.44
2019-04-25T06:48:17.257Z,17.16
2019-04-25T06:53:24.735Z,17.21
2019-04-25T06:58:30.161Z,17.45
2019-04-25T07:03:35.830Z,18.15
2019-04-25T07:08:41.271Z,18.43
2019-04-25T07:13:46.847Z,18.47
2019-04-25T07:18:53.416Z,18.48
2019-04-25T07:23:58.901Z,18.48
2019-04-25T07:29:35.718Z,18.44
2019-04-25T07:34:41.199Z,18.64
2019-04-25T07:39:46.630Z,20.53
2019-04-25T07:44:53.465Z,22.67
2019-04-25T07:49:59.326Z,23.89
2019-04-25T07:55:05.072Z,23.22
2019-04-25T08:00:15.013Z,22.51
2019-04-25T08:05:20.530Z,22.05
2019-04-25T08:10:27.885Z,22.01
2019-04-25T08:15:43.849Z,21.41
2019-04-25T08:20:49.302Z,20.48
2019-04-25T08:25:54.777Z,20.14
2019-04-25T08:31:00.268Z,21.40
2019-04-25T08:36:09.117Z,21.46
2019-04-25T08:41:14.027Z,21.20
2019-04-25T08:46:19.863Z,21.44
2019-04-25T08:51:28.687Z,21.28
2019-04-25T08:56:36.472Z,21.09
2019-04-25T09:02:03.825Z,20.67
2019-04-25T09:07:09.390Z,20.51
2019-04-25T09:12:14.968Z,20.34
2019-04-25T09:17:20.598Z,20.22
2019-04-25T09:22:26.041Z,20.13
2019-04-25T09:27:33.330Z,20.16
2019-04-25T09:32:39.877Z,20.46
2019-04-25T09:37:46.169Z,20.77
2019-04-25T09:42:51.740Z,21.09
2019-04-25T09:48:01.178Z,22.01
2019-04-25T09:53:06.683Z,22.90
2019-04-25T09:58:16.068Z,23.51
2019-04-25T10:03:23.352Z,23.49
2019-04-25T10:08:28.966Z,23.16
2019-04-25T10:13:34.422Z,23.05
2019-04-25T10:18:39.877Z,23.16
2019-04-25T10:23:46.741Z,23.49
2019-04-25T10:28:52.260Z,23.64
2019-04-25T10:33:57.703Z,23.97
2019-04-25T10:39:08.649Z,24.48
2019-04-25T10:44:10.554Z,25.04
2019-04-25T10:49:15.998Z,25.15
2019-04-25T10:54:21.531Z,25.72
2019-04-25T10:59:26.973Z,25.71
2019-04-25T11:04:38.131Z,25.77
2019-04-25T11:09:45.570Z,26.21
2019-04-25T11:14:50.940Z,26.24
2019-04-25T11:19:58.220Z,26.47
2019-04-25T11:25:03.679Z,26.48
2019-04-25T11:30:11.580Z,26.58
2019-04-25T11:35:17.198Z,26.08
2019-04-25T11:40:29.411Z,25.48
2019-04-25T11:45:36.016Z,25.35
2019-04-25T11:50:44.103Z,25.14
2019-04-25T11:55:50.109Z,25.10
2019-04-25T12:00:57.934Z,25.12
2019-04-25T12:06:02.970Z,25.04
2019-04-25T12:11:08.454Z,25.42
2019-04-25T12:16:14.405Z,25.57
2019-04-25T12:21:19.959Z,25.83
2019-04-25T12:26:26.347Z,26.05
2019-04-25T12:31:31.893Z,26.26
2019-04-25T12:36:37.450Z,26.28
2019-04-25T12:41:44.154Z,26.40
2019-04-25T12:46:50.898Z,26.85
2019-04-25T12:51:56.723Z,26.94
2019-04-25T12:57:04.035Z,26.88
2019-04-25T13:02:09.519Z,26.75
2019-04-25T13:07:14.957Z,26.50
2019-04-25T13:12:20.845Z,26.27
2019-04-25T13:17:26.276Z,26.03
2019-04-25T13:22:33.100Z,25.91
2019-04-25T13:27:51.390Z,25.98
2019-04-25T13:33:15.831Z,25.88
2019-04-25T13:38:21.401Z,26.08
2019-04-25T13:43:26.954Z,26.15
2019-04-25T13:48:34.351Z,26.18
2019-04-25T13:53:39.744Z,25.96
2019-04-25T13:58:45.193Z,26.00
2019-04-25T14:03:51.111Z,26.11
2019-04-25T14:08:56.881Z,26.25
2019-04-25T14:14:02.455Z,26.40
2019-04-25T14:19:34.811Z,26.28
2019-04-25T14:24:40.386Z,26.25
2019-04-25T14:29:45.949Z,26.08
2019-04-25T14:34:51.461Z,26.05
2019-04-25T14:39:56.879Z,25.80
2019-04-25T14:45:02.335Z,25.56
2019-04-25T14:50:07.841Z,25.61
2019-04-25T14:55:47.150Z,25.68
2019-04-25T15:00:53.068Z,25.77
2019-04-25T15:05:58.513Z,25.92
2019-04-25T15:11:04.217Z,25.92
2019-04-25T15:16:09.740Z,25.94
2019-04-25T15:21:15.563Z,25.97
2019-04-25T15:26:20.977Z,25.90
2019-04-25T15:31:28.168Z,25.76
2019-04-25T15:36:52.622Z,25.70
2019-04-25T15:42:06.282Z,25.58
2019-04-25T15:47:14.662Z,25.50
2019-04-25T15:52:20.136Z,25.44
2019-04-25T15:57:25.566Z,25.35
2019-04-25T16:02:30.997Z,25.15
2019-04-25T16:07:36.429Z,25.01
2019-04-25T16:12:41.940Z,24.79
2019-04-25T16:17:47.435Z,24.39
2019-04-25T16:22:52.886Z,24.02
2019-04-25T16:27:58.315Z,23.66
2019-04-25T16:33:05.280Z,23.45
2019-04-25T16:38:11.477Z,23.27
2019-04-25T16:43:20.575Z,23.10
2019-04-25T16:48:26.220Z,22.95
2019-04-25T16:53:32.577Z,22.81
2019-04-25T16:58:38.618Z,22.62
2019-04-25T17:03:44.234Z,22.38
2019-04-25T17:08:49.856Z,22.14
2019-04-25T17:14:22.958Z,21.95
2019-04-25T17:19:45.736Z,21.76
2019-04-25T17:24:51.383Z,21.62
2019-04-25T17:29:58.363Z,21.51
2019-04-25T17:35:12.465Z,21.33
2019-04-25T17:40:20.919Z,21.10
2019-04-25T17:45:32.130Z,20.94
2019-04-25T17:50:39.643Z,20.77
2019-04-25T17:55:45.159Z,20.62
2019-04-25T18:00:50.661Z,20.50
2019-04-25T18:05:56.054Z,20.37
2019-04-25T18:11:01.492Z,20.27
2019-04-25T18:16:23.799Z,20.16
2019-04-25T18:21:29.347Z,20.05
2019-04-25T18:26:52.054Z,19.95
2019-04-25T18:33:10.482Z,19.82
2019-04-25T18:38:36.023Z,19.70
2019-04-25T18:43:44.887Z,19.59
2019-04-25T18:48:50.364Z,19.47
2019-04-25T18:54:20.757Z,19.38
2019-04-25T18:59:48.314Z,19.28
2019-04-25T19:05:01.143Z,19.15
2019-04-25T19:10:08.609Z,19.04
2019-04-25T19:15:14.062Z,18.95
2019-04-25T19:20:19.561Z,18.83
2019-04-25T19:25:25.089Z,18.71
2019-04-25T19:30:30.735Z,18.62
2019-04-25T19:35:36.664Z,18.51
2019-04-25T19:41:10.484Z,18.42
2019-04-25T19:46:15.974Z,18.35
2019-04-25T19:51:21.561Z,18.34
2019-04-25T19:56:27.082Z,18.27
2019-04-25T20:01:32.510Z,18.21
2019-04-25T20:06:54.941Z,18.14
2019-04-25T20:12:00.664Z,18.07
2019-04-25T20:17:06.238Z,18.06
2019-04-25T20:22:11.677Z,18.05
2019-04-25T20:27:17.092Z,18.04
2019-04-25T20:32:22.549Z,18.02
2019-04-25T20:37:27.969Z,18.00
2019-04-25T20:42:33.609Z,17.95
2019-04-25T20:47:39.006Z,17.92
2019-04-25T20:52:44.435Z,17.87
2019-04-25T20:57:51.170Z,17.80
2019-04-25T21:02:56.645Z,17.75
2019-04-25T21:08:02.202Z,17.68
2019-04-25T21:13:10.830Z,17.62
2019-04-25T21:18:32.106Z,17.57
2019-04-25T21:23:37.569Z,17.49
2019-04-25T21:28:42.975Z,17.45
2019-04-25T21:33:48.466Z,17.38
2019-04-25T21:38:54.153Z,17.32
2019-04-25T21:44:04.831Z,17.27
2019-04-25T21:49:10.699Z,17.21
2019-04-25T21:54:16.117Z,17.16
2019-04-25T21:59:22.017Z,17.10
2019-04-25T22:04:38.191Z,17.06
2019-04-25T22:09:34.800Z,17.03
2019-04-25T22:14:40.476Z,17.01
2019-04-25T22:19:45.972Z,16.98
2019-04-25T22:24:51.792Z,16.94
2019-04-25T22:30:00.394Z,16.83
2019-04-25T22:35:13.090Z,16.66
2019-04-25T22:40:18.559Z,16.51
2019-04-25T22:45:24.745Z,16.40
2019-04-25T22:50:30.445Z,16.32
2019-04-25T22:55:35.913Z,16.23
2019-04-25T23:00:41.429Z,16.13
2019-04-25T23:05:51.648Z,16.06
2019-04-25T23:10:57.455Z,16.06
2019-04-25T23:16:04.128Z,16.05
2019-04-25T23:21:10.421Z,16.03
2019-04-25T23:26:43.767Z,16.01
2019-04-25T23:31:49.375Z,16.02
2019-04-25T23:36:55.135Z,16.02
2019-04-25T23:42:00.835Z,15.99
2019-04-25T23:47:07.354Z,15.96
2019-04-25T23:52:13.562Z,15.88
2019-04-25T23:57:19.113Z,15.72
